createdAt,value
2022-11-14T18:34:13.540Z,54.17
2022-11-14T18:36:58.157Z,56.25
2022-11-14T18:39:42.618Z,62.70
2022-11-14T18:42:27.161Z,65.50
2022-11-14T18:45:11.607Z,62.50
2022-11-14T18:47:56.089Z,65.63
2022-11-14T18:50:40.656Z,68.40
2022-11-14T18:53:25.096Z,74.03
2022-11-14T18:56:17.054Z,71.88
2022-11-14T18:59:01.747Z,76.82
2022-11-14T19:01:46.314Z,75.97
2022-11-14T19:04:30.801Z,85.30
2022-11-14T19:07:15.448Z,80.03
2022-11-14T19:10:00.247Z,79.87
2022-11-14T19:12:47.920Z,93.05
2022-11-14T19:15:32.905Z,80.00
2022-11-14T19:18:17.491Z,84.75
2022-11-14T19:21:04.033Z,83.70
2022-11-14T19:23:48.528Z,88.65
2022-11-14T19:26:33.414Z,89.78
2022-11-14T19:29:17.923Z,88.20
2022-11-14T19:32:03.397Z,89.72
2022-11-14T19:34:48.046Z,89.82
2022-11-14T19:37:32.937Z,87.67
2022-11-14T19:40:17.812Z,98.87
2022-11-14T19:43:04.172Z,86.97
2022-11-14T19:45:48.720Z,93.07
2022-11-14T19:48:34.462Z,89.93
2022-11-14T19:54:03.629Z,89.38
2022-11-14T19:56:48.159Z,94.93
2022-11-14T19:59:32.504Z,98.03
2022-11-14T20:02:17.021Z,101.63
2022-11-14T20:05:01.460Z,103.35
2022-11-14T20:07:45.911Z,103.88
2022-11-14T20:10:30.414Z,114.18
2022-11-14T20:13:14.869Z,107.82
2022-11-14T20:16:00.312Z,120.47
2022-11-14T20:18:46.513Z,118.80
2022-11-14T20:21:33.066Z,118.65
2022-11-14T20:24:21.611Z,131.48
2022-11-14T20:27:06.461Z,130.05
2022-11-14T20:29:50.930Z,137.38
2022-11-14T20:32:35.371Z,136.98
2022-11-14T20:35:19.808Z,136.07
2022-11-14T20:38:05.014Z,141.88
2022-11-14T20:40:55.222Z,153.02
2022-11-14T20:43:40.649Z,136.55
2022-11-14T20:46:25.153Z,172.02
2022-11-14T20:49:10.421Z,133.73
2022-11-14T20:51:55.170Z,174.27
2022-11-14T20:54:39.559Z,194.68
